createdAt,value
2019-02-16T00:00:18.560Z,5.80
2019-02-16T00:02:47.577Z,5.70
2019-02-16T00:05:14.729Z,5.70
2019-02-16T00:07:41.819Z,5.60
2019-02-16T00:10:08.944Z,5.60
2019-02-16T00:12:35.955Z,5.50
2019-02-16T00:15:03.220Z,5.50
2019-02-16T00:17:31.523Z,5.40
2019-02-16T00:19:58.700Z,5.40
2019-02-16T00:22:25.837Z,5.40
2019-02-16T00:24:52.947Z,5.40
2019-02-16T00:27:20.044Z,5.40
2019-02-16T00:29:47.217Z,5.40
2019-02-16T00:32:14.293Z,5.40
2019-02-16T00:34:41.549Z,5.40
2019-02-16T00:37:08.708Z,5.40
2019-02-16T00:39:35.966Z,5.40
2019-02-16T00:42:03.175Z,5.40
2019-02-16T00:44:30.424Z,5.30
2019-02-16T00:46:57.539Z,5.30
2019-02-16T00:49:24.690Z,5.20
2019-02-16T00:51:51.789Z,5.20
2019-02-16T00:54:18.932Z,5.20
2019-02-16T00:56:46.056Z,5.20
2019-02-16T00:59:13.188Z,5.20
2019-02-16T01:01:40.232Z,5.10
2019-02-16T01:04:07.328Z,5.10
2019-02-16T01:06:34.491Z,4.90
2019-02-16T01:09:01.813Z,4.70
2019-02-16T01:11:30.927Z,4.70
2019-02-16T01:13:58.035Z,4.60
2019-02-16T01:16:25.156Z,4.40
2019-02-16T01:18:52.266Z,4.40
2019-02-16T01:21:22.810Z,4.50
2019-02-16T01:23:48.591Z,4.50
2019-02-16T01:26:15.703Z,4.50
2019-02-16T01:28:42.825Z,4.50
2019-02-16T01:31:09.907Z,4.50
2019-02-16T01:33:37.092Z,4.50
2019-02-16T01:36:04.199Z,4.50
2019-02-16T01:38:31.342Z,4.50
2019-02-16T01:40:58.484Z,4.50
2019-02-16T01:43:25.579Z,4.50
2019-02-16T01:45:52.681Z,4.60
2019-02-16T01:48:19.815Z,4.60
2019-02-16T01:50:46.952Z,4.60
2019-02-16T01:53:14.037Z,4.60
2019-02-16T01:55:41.185Z,4.60
2019-02-16T01:58:08.303Z,4.60
2019-02-16T02:00:35.420Z,4.60
2019-02-16T02:03:02.496Z,4.50
2019-02-16T02:05:29.615Z,4.30
2019-02-16T02:07:56.672Z,4.10
2019-02-16T02:10:23.815Z,4.10
2019-02-16T02:12:50.897Z,4.20
2019-02-16T02:15:18.067Z,4.30
2019-02-16T02:17:45.180Z,4.20
2019-02-16T02:20:12.289Z,4.20
2019-02-16T02:22:39.554Z,4.10
2019-02-16T02:25:07.560Z,4.10
2019-02-16T02:27:34.665Z,4.10
2019-02-16T02:30:01.736Z,4.00
2019-02-16T02:32:29.045Z,4.00
2019-02-16T02:34:56.129Z,3.90
2019-02-16T02:37:23.232Z,3.70
2019-02-16T02:39:50.348Z,3.50
2019-02-16T02:42:17.429Z,3.30
2019-02-16T02:44:44.553Z,3.20
2019-02-16T02:47:11.672Z,3.20
2019-02-16T02:49:38.800Z,3.30
2019-02-16T02:52:05.944Z,3.40
2019-02-16T02:54:33.050Z,3.50
2019-02-16T02:57:00.167Z,3.50
2019-02-16T02:59:27.497Z,3.50
2019-02-16T03:01:54.499Z,3.50
2019-02-16T03:04:21.601Z,3.50
2019-02-16T03:06:48.729Z,3.50
2019-02-16T03:09:15.888Z,3.50
2019-02-16T03:11:43.090Z,3.60
2019-02-16T03:14:10.173Z,3.60
2019-02-16T03:16:37.280Z,3.60
2019-02-16T03:19:04.390Z,3.60
2019-02-16T03:21:31.920Z,3.60
2019-02-16T03:23:59.145Z,3.60
2019-02-16T03:26:29.421Z,3.60
2019-02-16T03:28:58.711Z,3.60
2019-02-16T03:31:45.328Z,3.60
2019-02-16T03:34:14.289Z,3.60
2019-02-16T03:36:48.290Z,3.60
2019-02-16T03:39:18.127Z,3.60
2019-02-16T03:41:45.222Z,3.70
2019-02-16T03:44:12.334Z,3.60
2019-02-16T03:46:39.427Z,3.70
2019-02-16T03:49:06.556Z,3.70
2019-02-16T03:51:33.801Z,3.50
2019-02-16T03:54:01.297Z,3.30
2019-02-16T03:56:28.385Z,3.20
2019-02-16T03:58:55.534Z,3.20
2019-02-16T04:01:22.620Z,3.20
2019-02-16T04:03:49.705Z,3.20
2019-02-16T04:06:16.717Z,3.20
2019-02-16T04:08:43.837Z,3.20
2019-02-16T04:11:10.932Z,3.20
2019-02-16T04:13:38.091Z,3.20
2019-02-16T04:16:05.161Z,3.20
2019-02-16T04:18:32.295Z,3.20
2019-02-16T04:20:59.426Z,3.10
2019-02-16T04:23:26.562Z,3.10
2019-02-16T04:25:53.656Z,3.00
2019-02-16T04:28:20.758Z,3.00
2019-02-16T04:30:48.233Z,3.10
2019-02-16T04:33:15.360Z,3.20
2019-02-16T04:35:42.472Z,3.20
2019-02-16T04:38:09.537Z,3.20
2019-02-16T04:40:36.684Z,3.20
2019-02-16T04:43:03.796Z,3.10
2019-02-16T04:45:30.900Z,2.90
2019-02-16T04:47:58.111Z,2.80
2019-02-16T04:50:25.328Z,2.80
2019-02-16T04:52:52.437Z,2.80
2019-02-16T04:55:19.585Z,2.80
2019-02-16T04:57:46.684Z,2.80
2019-02-16T05:00:13.905Z,2.80
2019-02-16T05:02:41.005Z,2.80
2019-02-16T05:05:08.076Z,2.80
2019-02-16T05:07:35.189Z,2.80
2019-02-16T05:10:02.372Z,2.70
2019-02-16T05:12:29.479Z,2.80
2019-02-16T05:14:56.593Z,2.80
2019-02-16T05:17:23.668Z,2.80
2019-02-16T05:19:50.771Z,2.70
2019-02-16T05:22:17.936Z,2.60
2019-02-16T05:24:45.072Z,2.50
2019-02-16T05:27:12.238Z,2.50
2019-02-16T05:29:48.174Z,2.50
2019-02-16T05:32:21.181Z,2.30
2019-02-16T05:34:48.289Z,2.50
2019-02-16T05:37:15.286Z,2.40
2019-02-16T05:39:42.408Z,2.30
2019-02-16T05:42:09.496Z,2.20
2019-02-16T05:44:36.722Z,2.10
2019-02-16T05:47:03.791Z,2.20
2019-02-16T05:49:30.937Z,2.20
2019-02-16T05:51:58.028Z,2.30
2019-02-16T05:54:25.105Z,2.30
2019-02-16T05:56:52.294Z,2.40
2019-02-16T05:59:19.353Z,2.50
2019-02-16T06:01:53.564Z,2.50
2019-02-16T06:04:15.485Z,2.60
2019-02-16T06:06:42.604Z,2.60
2019-02-16T06:09:09.679Z,2.70
2019-02-16T06:11:36.812Z,2.70
2019-02-16T06:14:03.884Z,2.70
2019-02-16T06:16:30.964Z,2.60
2019-02-16T06:18:58.081Z,2.60
2019-02-16T06:21:25.302Z,2.50
2019-02-16T06:23:52.412Z,2.50
2019-02-16T06:26:19.499Z,2.30
2019-02-16T06:28:46.632Z,2.40
2019-02-16T06:31:13.955Z,2.40
2019-02-16T06:33:41.092Z,2.40
2019-02-16T06:36:27.812Z,2.40
2019-02-16T06:38:54.932Z,2.30
2019-02-16T06:41:22.074Z,2.30
2019-02-16T06:43:49.187Z,2.30
2019-02-16T06:46:16.259Z,2.30
2019-02-16T06:48:43.513Z,2.30
2019-02-16T06:51:10.602Z,2.30
2019-02-16T06:53:37.682Z,2.20
2019-02-16T06:56:12.416Z,2.20
2019-02-16T06:58:39.501Z,2.10
2019-02-16T07:01:06.624Z,2.10
2019-02-16T07:03:33.719Z,2.10
2019-02-16T07:06:00.836Z,2.10
2019-02-16T07:08:27.939Z,2.10
2019-02-16T07:10:55.056Z,2.10
2019-02-16T07:13:22.139Z,2.20
2019-02-16T07:16:07.204Z,2.20
2019-02-16T07:18:42.331Z,2.30
2019-02-16T07:21:09.552Z,2.20
2019-02-16T07:23:36.645Z,2.10
2019-02-16T07:26:04.969Z,2.10
2019-02-16T07:28:32.368Z,2.20
2019-02-16T07:30:59.449Z,2.20
2019-02-16T07:33:26.579Z,2.40
2019-02-16T07:35:53.741Z,2.40
2019-02-16T07:38:21.046Z,2.50
2019-02-16T07:40:48.137Z,2.50
2019-02-16T07:43:53.876Z,2.60
2019-02-16T07:46:49.403Z,2.60
2019-02-16T07:49:23.149Z,2.70
2019-02-16T07:52:15.780Z,2.70
2019-02-16T07:54:50.179Z,2.80
2019-02-16T07:57:36.938Z,2.90
2019-02-16T08:00:09.972Z,2.90
2019-02-16T08:02:51.689Z,3.00
2019-02-16T08:05:28.108Z,3.10
2019-02-16T08:08:04.104Z,3.20
2019-02-16T08:10:58.885Z,3.30
2019-02-16T08:13:38.500Z,3.50
2019-02-16T08:16:32.814Z,3.60
2019-02-16T08:19:23.128Z,3.70
2019-02-16T08:21:57.965Z,3.90
2019-02-16T08:24:44.805Z,4.00
2019-02-16T08:27:20.654Z,4.20
2019-02-16T08:29:53.992Z,4.40
2019-02-16T08:32:43.701Z,4.70
2019-02-16T08:35:24.124Z,5.30
2019-02-16T08:38:05.782Z,5.90
2019-02-16T08:40:51.028Z,6.40
2019-02-16T08:43:28.197Z,6.80
2019-02-16T08:46:26.911Z,7.20
2019-02-16T08:49:10.925Z,7.50
2019-02-16T08:51:52.617Z,7.90
2019-02-16T08:54:48.185Z,8.10
2019-02-16T08:57:35.079Z,8.30
2019-02-16T09:00:33.803Z,8.60
2019-02-16T09:03:40.068Z,8.90
2019-02-16T09:06:25.511Z,9.00
2019-02-16T09:09:17.929Z,9.00
2019-02-16T09:12:07.567Z,9.00
2019-02-16T09:14:50.007Z,9.00
2019-02-16T09:17:48.662Z,9.10
2019-02-16T09:20:41.200Z,9.30
2019-02-16T09:23:29.044Z,9.70
2019-02-16T09:26:18.242Z,10.10
2019-02-16T09:29:02.268Z,10.30
2019-02-16T09:31:44.875Z,10.40
2019-02-16T09:34:18.261Z,10.60
2019-02-16T09:36:58.076Z,10.70
2019-02-16T09:39:41.635Z,10.70
2019-02-16T09:42:28.265Z,10.90
2019-02-16T09:45:12.404Z,10.90
2019-02-16T09:47:54.660Z,11.00
2019-02-16T09:50:28.296Z,11.00
2019-02-16T09:53:04.356Z,11.20
2019-02-16T09:55:49.656Z,11.40
2019-02-16T09:58:42.228Z,11.60
2019-02-16T10:01:27.585Z,11.70
2019-02-16T10:04:20.362Z,11.60
2019-02-16T10:07:07.064Z,11.70
2019-02-16T10:09:53.733Z,11.60
2019-02-16T10:12:46.403Z,11.80
2019-02-16T10:15:31.525Z,11.80
2019-02-16T10:18:36.221Z,11.80
2019-02-16T10:21:21.426Z,11.90
2019-02-16T10:24:17.595Z,11.90
2019-02-16T10:27:08.623Z,11.90
2019-02-16T10:29:57.780Z,11.80
2019-02-16T10:32:47.440Z,11.80
2019-02-16T10:35:25.359Z,11.80
2019-02-16T10:38:10.659Z,11.90
2019-02-16T10:40:55.975Z,12.10
2019-02-16T10:43:51.413Z,12.20
2019-02-16T10:46:40.556Z,12.20
2019-02-16T10:49:32.980Z,12.20
2019-02-16T10:52:25.032Z,12.30
2019-02-16T10:55:17.918Z,12.50
2019-02-16T10:57:56.395Z,12.60
2019-02-16T11:00:33.105Z,12.70
2019-02-16T11:03:20.011Z,12.80
2019-02-16T11:05:59.473Z,12.90
2019-02-16T11:08:33.608Z,12.90
2019-02-16T11:11:06.801Z,13.10
2019-02-16T11:13:59.019Z,13.10
2019-02-16T11:16:57.488Z,13.20
2019-02-16T11:19:44.100Z,13.40
2019-02-16T11:22:22.438Z,13.40
2019-02-16T11:25:07.854Z,13.50
2019-02-16T11:28:03.481Z,13.50
2019-02-16T11:31:05.220Z,13.60
2019-02-16T11:33:50.877Z,13.80
2019-02-16T11:36:37.480Z,13.70
2019-02-16T11:39:14.503Z,13.80
2019-02-16T11:41:51.817Z,13.90
2019-02-16T11:44:50.819Z,14.10
2019-02-16T11:47:49.778Z,14.10
2019-02-16T11:50:54.329Z,14.20
2019-02-16T11:53:28.824Z,14.40
2019-02-16T11:56:12.108Z,14.80
2019-02-16T11:58:46.006Z,14.80
2019-02-16T15:39:13.334Z,22.30
2019-02-16T15:41:41.820Z,21.50
2019-02-16T15:44:10.759Z,21.20
2019-02-16T15:46:38.613Z,21.00
2019-02-16T15:49:06.226Z,20.80
2019-02-16T15:51:33.954Z,20.90
2019-02-16T15:54:01.571Z,20.90
2019-02-16T15:56:29.199Z,20.90
2019-02-16T15:58:56.857Z,20.90
2019-02-16T16:01:24.576Z,21.00
2019-02-16T16:03:52.639Z,21.00
2019-02-16T16:06:20.280Z,21.00
2019-02-16T16:09:05.348Z,21.00
2019-02-16T16:11:43.001Z,21.10
2019-02-16T16:14:32.980Z,21.10
2019-02-16T16:17:10.386Z,21.10
2019-02-16T16:19:46.844Z,21.10
2019-02-16T16:22:45.951Z,21.10
2019-02-16T16:25:51.501Z,21.10
2019-02-16T16:28:41.475Z,21.20
2019-02-16T16:31:37.311Z,21.20
2019-02-16T16:34:24.474Z,21.10
2019-02-16T16:37:11.189Z,21.10
2019-02-16T16:39:51.632Z,21.20
2019-02-16T16:42:37.151Z,21.20
2019-02-16T16:45:22.765Z,21.20
2019-02-16T16:48:16.910Z,21.20
2019-02-16T16:50:56.443Z,21.20
2019-02-16T16:53:44.645Z,21.20
2019-02-16T16:56:31.797Z,21.20
2019-02-16T16:59:17.419Z,21.20
2019-02-16T17:02:07.664Z,21.20
2019-02-16T17:04:57.493Z,21.20
2019-02-16T17:07:47.162Z,21.20
2019-02-16T17:10:32.088Z,21.20
2019-02-16T17:13:34.139Z,21.20
2019-02-16T17:16:19.902Z,21.20
2019-02-16T17:19:01.435Z,21.20
2019-02-16T17:21:44.712Z,21.20
2019-02-16T17:24:34.367Z,21.20
2019-02-16T17:27:28.724Z,21.20
2019-02-16T17:30:21.815Z,21.20
2019-02-16T17:33:11.351Z,21.20
2019-02-16T17:35:57.096Z,21.20
2019-02-16T17:38:36.473Z,21.20
2019-02-16T17:41:24.155Z,21.20
2019-02-16T17:44:20.184Z,21.20
2019-02-16T17:47:06.021Z,21.20
2019-02-16T17:49:52.693Z,21.20
2019-02-16T17:52:49.657Z,21.20
2019-02-16T17:55:35.281Z,21.20
2019-02-16T17:58:21.165Z,21.10
2019-02-16T18:01:13.512Z,21.10
2019-02-16T18:04:18.592Z,21.10
2019-02-16T18:07:15.094Z,21.10
2019-02-16T18:10:08.139Z,21.10
2019-02-16T18:13:04.443Z,21.20
2019-02-16T18:15:53.298Z,21.20
2019-02-16T18:18:40.240Z,21.10
2019-02-16T18:21:15.978Z,21.10
2019-02-16T18:23:51.586Z,21.10
2019-02-16T18:26:34.679Z,21.10
2019-02-16T18:29:11.478Z,21.10
2019-02-16T18:31:58.598Z,21.10
2019-02-16T18:34:45.733Z,21.20
2019-02-16T18:37:21.319Z,21.10
2019-02-16T18:40:07.020Z,21.10
2019-02-16T18:42:45.196Z,21.10
2019-02-16T18:45:43.939Z,21.10
2019-02-16T18:48:31.166Z,21.10
2019-02-16T18:51:27.152Z,21.20
2019-02-16T18:54:12.763Z,21.10
2019-02-16T18:57:06.292Z,21.10
2019-02-16T18:59:34.414Z,21.10
2019-02-16T19:02:21.828Z,21.20
2019-02-16T19:05:12.127Z,21.10
2019-02-16T19:08:02.127Z,21.20
2019-02-16T19:10:48.325Z,21.10
2019-02-16T19:13:35.503Z,21.10
2019-02-16T19:16:22.698Z,21.10
2019-02-16T19:19:08.212Z,21.10
2019-02-16T19:21:52.266Z,21.10
2019-02-16T19:24:29.392Z,21.10
2019-02-16T19:27:17.103Z,21.10
2019-02-16T19:30:07.408Z,21.10
2019-02-16T19:32:58.231Z,21.10
2019-02-16T19:35:32.799Z,21.10
2019-02-16T19:38:16.959Z,21.10
2019-02-16T19:40:56.689Z,21.10
2019-02-16T19:43:58.816Z,21.10
2019-02-16T19:46:52.477Z,21.10
2019-02-16T19:49:42.449Z,21.10
2019-02-16T19:52:35.408Z,21.10
2019-02-16T19:55:22.226Z,21.10
2019-02-16T19:58:03.414Z,21.20
2019-02-16T20:00:50.527Z,21.10
2019-02-16T20:03:32.821Z,21.10
2019-02-16T20:06:18.577Z,21.10
2019-02-16T20:09:11.580Z,21.10
2019-02-16T20:11:47.824Z,21.10
2019-02-16T20:14:33.268Z,21.10
2019-02-16T20:17:20.762Z,21.10
2019-02-16T20:20:13.716Z,21.10
2019-02-16T20:23:01.193Z,21.10
2019-02-16T20:26:06.665Z,21.10
2019-02-16T20:28:59.565Z,21.10
2019-02-16T20:31:49.814Z,21.10
2019-02-16T20:34:24.037Z,21.10
2019-02-16T20:37:00.100Z,21.10
2019-02-16T20:39:46.684Z,21.10
2019-02-16T20:42:36.583Z,21.10
2019-02-16T20:45:27.085Z,21.00
2019-02-16T20:48:12.891Z,21.10
2019-02-16T20:51:11.955Z,21.10
2019-02-16T20:53:56.403Z,21.10
2019-02-16T20:56:31.149Z,21.10
2019-02-16T20:59:12.880Z,21.10
2019-02-16T21:02:11.850Z,21.10
2019-02-16T21:04:57.720Z,21.10
2019-02-16T21:07:53.742Z,21.10
2019-02-16T21:10:46.906Z,21.10
2019-02-16T21:13:29.058Z,21.10
2019-02-16T21:16:17.473Z,21.10
2019-02-16T21:19:07.661Z,21.10
2019-02-16T21:21:55.095Z,21.10
2019-02-16T21:24:45.012Z,21.10
2019-02-16T21:27:22.937Z,21.10
2019-02-16T21:30:09.712Z,21.10
2019-02-16T21:32:47.567Z,21.10
2019-02-16T21:35:46.381Z,21.10
2019-02-16T21:38:24.533Z,21.10
2019-02-16T21:41:13.955Z,21.10
2019-02-16T21:43:59.806Z,21.10
2019-02-16T21:46:53.343Z,21.10
2019-02-16T21:49:39.590Z,21.10
2019-02-16T21:52:19.702Z,21.10
2019-02-16T21:55:05.412Z,21.10
2019-02-16T21:57:42.752Z,21.00
2019-02-16T22:00:22.571Z,21.00
2019-02-16T22:03:04.214Z,21.10
2019-02-16T22:05:49.791Z,21.10
2019-02-16T22:08:36.834Z,21.10
2019-02-16T22:11:26.841Z,21.00
2019-02-16T22:13:54.485Z,21.00
2019-02-16T22:16:22.149Z,21.00
2019-02-16T22:18:49.834Z,21.00
2019-02-16T22:21:17.574Z,21.00
2019-02-16T22:23:45.173Z,21.00
2019-02-16T22:26:12.820Z,21.00
2019-02-16T22:28:40.425Z,21.00
2019-02-16T22:31:08.137Z,21.00
2019-02-16T22:33:35.728Z,21.00
2019-02-16T22:36:03.595Z,21.00
2019-02-16T22:38:31.219Z,21.00
2019-02-16T22:40:58.856Z,21.00
2019-02-16T22:43:26.501Z,21.00
2019-02-16T22:45:54.129Z,21.00
2019-02-16T22:48:21.926Z,21.00
2019-02-16T22:50:49.721Z,21.00
2019-02-16T22:53:17.343Z,21.00
2019-02-16T22:55:44.964Z,21.00
2019-02-16T22:58:12.613Z,21.00
2019-02-16T23:00:48.162Z,21.00
2019-02-16T23:03:17.805Z,21.00
2019-02-16T23:05:45.422Z,21.00
2019-02-16T23:08:14.240Z,21.00
2019-02-16T23:10:41.852Z,21.00
2019-02-16T23:13:09.592Z,21.00
2019-02-16T23:15:37.341Z,21.00
2019-02-16T23:18:05.062Z,21.00
2019-02-16T23:20:32.769Z,21.00
2019-02-16T23:23:00.418Z,21.00
2019-02-16T23:25:28.060Z,21.00
2019-02-16T23:27:55.773Z,21.00
2019-02-16T23:30:23.927Z,21.00
2019-02-16T23:32:51.531Z,20.90
2019-02-16T23:35:19.352Z,20.90
2019-02-16T23:37:47.038Z,20.90
2019-02-16T23:40:14.667Z,20.90
2019-02-16T23:42:42.353Z,20.90
2019-02-16T23:45:10.016Z,20.90
2019-02-16T23:47:37.615Z,20.90
2019-02-16T23:50:06.768Z,20.90
2019-02-16T23:52:34.422Z,20.90
2019-02-16T23:55:02.315Z,20.90
2019-02-16T23:57:29.973Z,20.80
2019-02-16T23:59:57.594Z,20.90
